Time;durP1;ratioP1;P1;durP2;ratioP2;P2;SDS_P1;SDS_P2;PMS_P1;PMS_P2;Temp;Humidity;BMP_temperature;BMP_pressure;BME280_temperature;BME280_humidity;BME280_pressure;Samples;Min_cycle;Max_cycle;Signal;HPM_P1;HPM_P2
2023/11/10 00:01:36;;;;;;;3.80;2.00;;;9.60;82.50;;;;;;5053454;28;20239;-71
2023/11/10 00:04:03;;;;;;;2.43;1.77;;;9.60;82.70;;;;;;5051185;28;20200;-70
2023/11/10 00:06:28;;;;;;;3.10;2.03;;;9.60;83.00;;;;;;5033256;28;20942;-70
2023/11/10 00:08:55;;;;;;;3.50;1.97;;;9.60;83.10;;;;;;5051541;28;20423;-70
2023/11/10 00:11:20;;;;;;;6.00;2.27;;;9.50;83.10;;;;;;5052777;28;20189;-70
2023/11/10 00:13:46;;;;;;;3.57;1.80;;;9.40;83.40;;;;;;5050734;28;20442;-71
2023/11/10 00:16:11;;;;;;;4.03;2.40;;;9.30;83.80;;;;;;5050386;28;20177;-72
2023/11/10 00:18:37;;;;;;;3.23;1.90;;;9.30;84.10;;;;;;5066444;28;20184;-72
2023/11/10 00:21:03;;;;;;;2.60;2.30;;;9.30;84.40;;;;;;5050889;28;20243;-70
2023/11/10 00:23:28;;;;;;;5.00;2.00;;;9.10;84.70;;;;;;5053742;28;20212;-71
2023/11/10 00:25:54;;;;;;;5.00;1.90;;;9.10;85.20;;;;;;5054206;28;20494;-72
2023/11/10 00:28:19;;;;;;;4.50;1.80;;;9.00;85.50;;;;;;5054443;28;20191;-70
2023/11/10 00:30:45;;;;;;;3.67;1.27;;;9.00;85.70;;;;;;5054435;28;20638;-72
2023/11/10 00:33:11;;;;;;;3.43;1.60;;;9.00;85.70;;;;;;5053841;28;20197;-72
2023/11/10 00:35:37;;;;;;;1.83;1.50;;;8.90;85.70;;;;;;5053669;28;20191;-71
2023/11/10 00:38:03;;;;;;;2.67;1.40;;;8.90;85.60;;;;;;5036132;28;20228;-71
2023/11/10 00:40:31;;;;;;;1.93;1.43;;;8.90;85.30;;;;;;5035914;28;20431;-70
2023/11/10 00:42:56;;;;;;;2.33;1.07;;;8.80;85.00;;;;;;5053360;28;20431;-69
2023/11/10 00:45:22;;;;;;;3.30;1.50;;;8.80;85.20;;;;;;5053539;28;20429;-70
2023/11/10 00:47:48;;;;;;;2.40;1.20;;;8.80;85.00;;;;;;5053765;28;20192;-70
2023/11/10 00:50:13;;;;;;;1.30;1.07;;;8.80;84.90;;;;;;5053825;28;20192;-70
2023/11/10 00:52:39;;;;;;;1.47;1.00;;;8.80;84.60;;;;;;5053296;28;20550;-71
2023/11/10 00:55:06;;;;;;;2.10;1.10;;;8.80;84.40;;;;;;5054159;28;20239;-69
2023/11/10 00:57:32;;;;;;;1.73;1.17;;;8.70;84.10;;;;;;5053450;28;20205;-71
2023/11/10 00:59:58;;;;;;;2.27;1.07;;;8.70;84.10;;;;;;5053819;28;20931;-70
2023/11/10 01:02:24;;;;;;;1.20;0.90;;;8.70;84.10;;;;;;5053401;28;20765;-71
2023/11/10 01:04:49;;;;;;;1.63;1.00;;;8.70;84.10;;;;;;5053091;28;20692;-71
2023/11/10 01:07:15;;;;;;;1.40;1.20;;;8.70;84.30;;;;;;5053759;28;20177;-71
2023/11/10 01:09:41;;;;;;;1.77;0.90;;;8.70;84.40;;;;;;5053756;28;20181;-70
2023/11/10 01:12:06;;;;;;;1.20;1.03;;;8.70;84.60;;;;;;5054770;28;20180;-71
2023/11/10 01:14:32;;;;;;;2.10;1.60;;;8.80;84.90;;;;;;5053878;28;20296;-71
2023/11/10 01:16:58;;;;;;;1.20;0.87;;;8.90;84.60;;;;;;5056298;28;20184;-71
2023/11/10 01:19:23;;;;;;;2.10;1.00;;;8.80;84.10;;;;;;5064166;28;20195;-71
2023/11/10 01:21:49;;;;;;;2.03;1.20;;;8.80;84.10;;;;;;5053583;28;20220;-70
2023/11/10 01:24:16;;;;;;;2.57;1.30;;;8.80;83.80;;;;;;5052947;28;20218;-70
2023/11/10 01:26:42;;;;;;;1.93;1.33;;;8.70;84.00;;;;;;5053026;28;20660;-71
2023/11/10 01:29:07;;;;;;;1.20;1.10;;;8.70;84.30;;;;;;5053993;28;20464;-71
2023/11/10 01:31:33;;;;;;;1.30;0.90;;;8.70;84.30;;;;;;5068514;28;20180;-70
2023/11/10 01:33:59;;;;;;;1.40;0.93;;;8.70;84.00;;;;;;5071403;28;20215;-72
2023/11/10 01:36:24;;;;;;;1.20;0.80;;;8.70;83.80;;;;;;5069621;28;20183;-70
2023/11/10 01:38:51;;;;;;;1.67;1.00;;;8.70;83.80;;;;;;5068308;28;20253;-71
2023/11/10 01:41:16;;;;;;;1.40;0.80;;;8.70;84.00;;;;;;5058014;28;20298;-71
2023/11/10 01:43:44;;;;;;;2.07;0.93;;;8.70;84.00;;;;;;5070424;28;20981;-70
2023/11/10 01:46:30;;;;;;;1.93;1.00;;;8.70;84.00;;;;;;5072974;28;20179;-70
2023/11/10 01:48:58;;;;;;;1.40;1.00;;;8.70;84.00;;;;;;5072666;28;20774;-72
2023/11/10 01:51:24;;;;;;;2.23;1.10;;;8.70;84.10;;;;;;5062512;28;20820;-71
2023/11/10 01:53:49;;;;;;;1.77;0.90;;;8.70;84.10;;;;;;5058637;28;20462;-71
2023/11/10 01:56:15;;;;;;;3.17;1.80;;;8.80;84.10;;;;;;5066625;28;20180;-71
2023/11/10 01:58:40;;;;;;;1.33;1.10;;;8.70;84.00;;;;;;5072653;28;20198;-70
2023/11/10 02:01:10;;;;;;;1.80;1.23;;;8.70;84.10;;;;;;5061609;28;20227;-71
2023/11/10 02:03:37;;;;;;;2.20;1.63;;;8.70;84.30;;;;;;5059440;28;20223;-70
2023/11/10 02:06:03;;;;;;;1.93;1.13;;;8.80;84.60;;;;;;5053165;28;20422;-71
2023/11/10 02:08:29;;;;;;;1.70;1.20;;;8.80;84.60;;;;;;5068444;28;20526;-70
2023/11/10 02:10:55;;;;;;;3.23;1.20;;;8.90;84.40;;;;;;5077356;28;20438;-71
2023/11/10 02:13:21;;;;;;;1.70;1.20;;;8.90;84.10;;;;;;5077399;28;20542;-71
2023/11/10 02:15:47;;;;;;;1.40;1.00;;;8.90;84.10;;;;;;5073171;28;20207;-71
2023/11/10 02:18:12;;;;;;;1.27;0.90;;;8.80;84.40;;;;;;5055316;28;20230;-71
2023/11/10 02:20:38;;;;;;;1.57;1.27;;;8.90;84.10;;;;;;5072571;28;20475;-70
2023/11/10 02:23:03;;;;;;;1.70;1.27;;;8.90;84.10;;;;;;5069215;28;20175;-69
2023/11/10 02:25:29;;;;;;;2.07;1.20;;;8.80;84.40;;;;;;5059597;28;20180;-71
2023/11/10 02:27:55;;;;;;;1.33;1.10;;;8.80;84.60;;;;;;5064841;28;20192;-70
2023/11/10 02:30:21;;;;;;;1.53;1.17;;;8.80;84.70;;;;;;5072350;28;20452;-69
2023/11/10 02:32:47;;;;;;;1.90;1.33;;;8.80;84.90;;;;;;5072537;28;20445;-71
2023/11/10 02:35:13;;;;;;;3.90;1.30;;;8.70;85.20;;;;;;5072233;28;20712;-71
2023/11/10 02:37:40;;;;;;;1.63;1.37;;;8.70;85.30;;;;;;5054519;28;20287;-71
2023/11/10 02:40:06;;;;;;;1.97;1.00;;;8.70;85.50;;;;;;5065269;28;20434;-71
2023/11/10 02:42:35;;;;;;;3.43;1.80;;;8.70;85.60;;;;;;5067567;28;20470;-70
2023/11/10 02:45:01;;;;;;;2.77;1.53;;;8.70;85.70;;;;;;5071771;28;20499;-73
2023/11/10 02:47:27;;;;;;;2.00;1.40;;;8.70;85.70;;;;;;5069595;28;20591;-72
2023/11/10 02:49:52;;;;;;;3.97;1.40;;;8.70;85.70;;;;;;5057406;28;20459;-70
2023/11/10 02:52:18;;;;;;;1.50;1.30;;;8.60;85.60;;;;;;5060415;28;20587;-70
2023/11/10 02:54:44;;;;;;;2.57;1.60;;;8.60;85.70;;;;;;5055986;28;20207;-72
2023/11/10 02:57:09;;;;;;;4.80;1.20;;;8.60;85.70;;;;;;5063152;28;20180;-71
2023/11/10 02:59:36;;;;;;;2.63;1.20;;;8.60;85.60;;;;;;5065252;28;20184;-71
2023/11/10 03:02:02;;;;;;;2.80;1.40;;;8.60;85.70;;;;;;5058721;28;20358;-70
2023/11/10 03:04:28;;;;;;;1.93;1.10;;;8.50;85.30;;;;;;5059339;28;21013;-72
2023/11/10 03:06:53;;;;;;;3.27;1.40;;;8.50;85.20;;;;;;5073663;28;20260;-70
2023/11/10 03:09:19;;;;;;;1.83;1.30;;;8.50;85.00;;;;;;5070066;28;20199;-70
2023/11/10 03:11:44;;;;;;;1.40;1.10;;;8.50;85.00;;;;;;5075564;28;20194;-69
2023/11/10 03:14:10;;;;;;;1.97;1.40;;;8.50;84.90;;;;;;5062198;28;20243;-69
2023/11/10 03:16:36;;;;;;;3.40;1.30;;;8.50;84.90;;;;;;5063957;28;20246;-69
2023/11/10 03:19:02;;;;;;;1.20;1.13;;;8.50;84.90;;;;;;5061747;28;20233;-70
2023/11/10 03:21:28;;;;;;;2.33;1.30;;;8.50;84.70;;;;;;5060940;28;20583;-72
2023/11/10 03:23:53;;;;;;;2.07;1.40;;;8.50;84.70;;;;;;5070361;28;20246;-72
2023/11/10 03:26:19;;;;;;;2.80;1.20;;;8.50;84.60;;;;;;5064567;28;20434;-71
2023/11/10 03:28:45;;;;;;;1.50;0.90;;;8.50;84.70;;;;;;5057488;28;20195;-70
2023/11/10 03:31:10;;;;;;;1.00;0.80;;;8.40;84.60;;;;;;5059340;28;20184;-68
2023/11/10 03:33:36;;;;;;;2.10;1.10;;;8.40;84.30;;;;;;5071965;28;20195;-69
2023/11/10 03:36:05;;;;;;;1.90;1.07;;;8.40;84.30;;;;;;5053603;28;20191;-70
2023/11/10 03:38:31;;;;;;;4.00;0.90;;;8.40;84.40;;;;;;5059003;28;20196;-71
2023/11/10 03:40:58;;;;;;;1.50;0.70;;;8.50;84.30;;;;;;5061378;28;20986;-71
2023/11/10 03:43:25;;;;;;;1.10;0.90;;;8.50;84.10;;;;;;5068756;28;20946;-72
2023/11/10 03:45:51;;;;;;;1.07;0.67;;;8.50;84.10;;;;;;5052988;28;20442;-69
2023/11/10 03:48:17;;;;;;;1.20;0.80;;;8.60;83.80;;;;;;5070424;28;20427;-69
2023/11/10 03:50:43;;;;;;;1.00;0.60;;;8.60;83.80;;;;;;5068166;28;20437;-68
2023/11/10 03:53:08;;;;;;;0.90;0.60;;;8.60;83.60;;;;;;5060361;28;20235;-70
2023/11/10 03:55:34;;;;;;;1.10;0.67;;;8.60;83.40;;;;;;5059576;28;20222;-70
2023/11/10 03:57:59;;;;;;;1.20;0.87;;;8.60;83.70;;;;;;5060336;28;20184;-70
2023/11/10 04:00:26;;;;;;;0.80;0.50;;;8.60;83.70;;;;;;5067679;28;20187;-71
2023/11/10 04:02:51;;;;;;;1.93;0.90;;;8.60;83.60;;;;;;5059670;28;20198;-70
2023/11/10 04:05:17;;;;;;;0.80;0.60;;;8.50;83.60;;;;;;5066800;28;20461;-69
2023/11/10 04:07:43;;;;;;;1.77;0.80;;;8.50;83.70;;;;;;5074079;28;20184;-72
2023/11/10 04:10:10;;;;;;;1.60;0.77;;;8.50;83.70;;;;;;5067213;28;20187;-70
2023/11/10 04:12:36;;;;;;;1.70;1.00;;;8.60;83.80;;;;;;5065933;28;20190;-71
2023/11/10 04:15:02;;;;;;;1.10;0.70;;;8.50;84.00;;;;;;5067986;28;20453;-69
2023/11/10 04:17:27;;;;;;;1.77;0.90;;;8.50;84.00;;;;;;5068126;28;20180;-73
2023/11/10 04:19:53;;;;;;;3.33;0.90;;;8.50;84.00;;;;;;5053883;28;20179;-70
2023/11/10 04:22:18;;;;;;;0.93;0.90;;;8.50;84.10;;;;;;5070035;28;20260;-70
2023/11/10 04:24:44;;;;;;;0.77;0.60;;;8.60;84.10;;;;;;5073263;28;20321;-70
2023/11/10 04:27:10;;;;;;;2.13;0.63;;;8.60;83.80;;;;;;5071798;28;20172;-71
2023/11/10 04:29:36;;;;;;;1.70;0.80;;;8.50;83.70;;;;;;5073790;28;20599;-71
2023/11/10 04:32:03;;;;;;;1.00;0.70;;;8.50;83.40;;;;;;5064542;28;20275;-72
2023/11/10 04:34:28;;;;;;;1.60;0.80;;;8.50;83.30;;;;;;5067322;28;20454;-70
2023/11/10 04:36:54;;;;;;;0.80;0.70;;;8.50;83.30;;;;;;5056723;28;20959;-71
2023/11/10 04:39:20;;;;;;;0.87;0.60;;;8.50;83.30;;;;;;5064705;28;20196;-71
2023/11/10 04:41:47;;;;;;;0.80;0.60;;;8.50;83.10;;;;;;5074115;28;20246;-71
2023/11/10 04:44:13;;;;;;;3.53;0.70;;;8.50;83.30;;;;;;5063559;28;20257;-70
2023/11/10 04:46:41;;;;;;;1.00;0.80;;;8.40;83.00;;;;;;5072706;28;20427;-70
2023/11/10 04:49:07;;;;;;;1.00;0.70;;;8.50;82.70;;;;;;5067135;28;20617;-69
2023/11/10 04:51:33;;;;;;;1.53;0.70;;;8.40;82.70;;;;;;5055636;28;20462;-69
2023/11/10 04:53:59;;;;;;;0.83;0.60;;;8.40;82.70;;;;;;5054654;28;20545;-71
2023/11/10 04:56:25;;;;;;;1.00;0.70;;;8.40;82.70;;;;;;5062157;28;20209;-71
2023/11/10 04:58:50;;;;;;;0.70;0.50;;;8.40;82.70;;;;;;5072258;28;20488;-70
2023/11/10 05:01:16;;;;;;;0.80;0.60;;;8.40;82.70;;;;;;5074490;28;20207;-70
2023/11/10 05:03:42;;;;;;;1.07;0.60;;;8.40;82.50;;;;;;5073696;28;20676;-71
2023/11/10 05:06:08;;;;;;;0.70;0.50;;;8.40;82.50;;;;;;5072050;28;20184;-69
2023/11/10 05:08:33;;;;;;;0.60;0.40;;;8.40;82.20;;;;;;5074208;28;20247;-70
2023/11/10 05:10:59;;;;;;;0.80;0.50;;;8.30;82.20;;;;;;5072235;28;20446;-71
2023/11/10 05:13:26;;;;;;;0.80;0.50;;;8.30;82.40;;;;;;5069238;28;20203;-70
2023/11/10 05:15:51;;;;;;;1.57;0.50;;;8.30;82.40;;;;;;5062667;28;20842;-69
2023/11/10 05:18:18;;;;;;;0.80;0.50;;;8.30;82.40;;;;;;5068920;28;20575;-70
2023/11/10 05:20:44;;;;;;;0.60;0.40;;;8.30;82.50;;;;;;5062401;28;20187;-70
2023/11/10 05:23:09;;;;;;;0.80;0.50;;;8.30;82.40;;;;;;5073963;28;20434;-68
2023/11/10 05:25:35;;;;;;;2.50;0.70;;;8.20;82.70;;;;;;5068457;28;20195;-69
2023/11/10 05:28:00;;;;;;;1.73;0.63;;;8.20;83.00;;;;;;5062807;28;20191;-70
2023/11/10 05:30:26;;;;;;;0.90;0.50;;;8.20;83.10;;;;;;5071398;28;20183;-69
2023/11/10 05:32:52;;;;;;;1.73;0.50;;;8.10;83.40;;;;;;5070572;28;20338;-70
2023/11/10 05:35:18;;;;;;;0.70;0.50;;;8.10;83.80;;;;;;5054904;28;20212;-70
2023/11/10 05:37:44;;;;;;;1.10;0.67;;;8.10;83.80;;;;;;5057428;28;20215;-72
2023/11/10 05:40:10;;;;;;;0.90;0.60;;;8.00;84.00;;;;;;5063121;28;20528;-71
2023/11/10 05:42:36;;;;;;;1.00;0.57;;;8.00;84.10;;;;;;5072207;28;20583;-71
2023/11/10 05:45:02;;;;;;;0.77;0.53;;;8.00;84.10;;;;;;5070918;28;20969;-70
2023/11/10 05:47:28;;;;;;;0.87;0.70;;;8.00;84.10;;;;;;5060234;28;20181;-72
2023/11/10 05:49:54;;;;;;;1.60;0.70;;;8.00;84.10;;;;;;5065642;28;20469;-72
2023/11/10 05:52:20;;;;;;;0.70;0.50;;;7.90;83.80;;;;;;5072080;28;20579;-72
2023/11/10 05:54:45;;;;;;;0.80;0.70;;;8.00;84.00;;;;;;5072832;28;20257;-73
2023/11/10 05:57:13;;;;;;;1.00;0.60;;;8.00;83.80;;;;;;5061869;28;20556;-71
2023/11/10 05:59:38;;;;;;;2.50;0.90;;;8.00;83.80;;;;;;5064311;28;20192;-71
2023/11/10 06:02:04;;;;;;;0.87;0.60;;;7.90;83.80;;;;;;5073589;28;20462;-72
2023/11/10 06:04:30;;;;;;;1.40;0.70;;;8.00;84.00;;;;;;5058776;28;20238;-70
2023/11/10 06:06:55;;;;;;;1.17;0.70;;;8.00;84.00;;;;;;5071453;28;20719;-72
2023/11/10 06:09:22;;;;;;;1.10;0.80;;;8.00;83.80;;;;;;5053580;28;20216;-70
2023/11/10 06:11:49;;;;;;;0.73;0.50;;;8.00;83.80;;;;;;5064834;28;20194;-72
2023/11/10 06:14:16;;;;;;;1.23;0.60;;;8.00;84.10;;;;;;5057557;28;20446;-70
2023/11/10 06:16:42;;;;;;;1.97;0.90;;;8.00;84.00;;;;;;5071094;28;20454;-70
2023/11/10 06:19:08;;;;;;;1.70;0.90;;;8.00;84.00;;;;;;5069678;28;20462;-71
2023/11/10 06:21:34;;;;;;;2.03;0.87;;;8.00;84.10;;;;;;5067982;28;20200;-71
2023/11/10 06:24:00;;;;;;;1.20;1.10;;;7.90;84.00;;;;;;5052275;28;20205;-70
2023/11/10 06:26:25;;;;;;;1.47;0.77;;;7.90;84.00;;;;;;5070023;28;20439;-71
2023/11/10 06:28:51;;;;;;;1.53;0.70;;;8.00;84.10;;;;;;5063587;28;20226;-70
2023/11/10 06:31:20;;;;;;;1.37;0.70;;;8.00;83.80;;;;;;5071834;28;20306;-70
2023/11/10 06:33:48;;;;;;;0.70;0.60;;;8.00;83.70;;;;;;5060836;28;20975;-73
2023/11/10 06:36:17;;;;;;;0.80;0.60;;;8.00;83.80;;;;;;5063298;28;20427;-70
2023/11/10 06:38:44;;;;;;;1.33;0.80;;;8.10;83.70;;;;;;5071114;28;20498;-70
2023/11/10 06:41:11;;;;;;;2.03;0.90;;;8.10;83.60;;;;;;5069890;28;21034;-71
2023/11/10 06:43:38;;;;;;;1.63;0.70;;;8.10;83.40;;;;;;5056073;28;20589;-70
2023/11/10 06:46:04;;;;;;;0.90;0.70;;;8.10;83.30;;;;;;5064304;28;20442;-70
2023/11/10 06:48:29;;;;;;;1.10;0.70;;;8.20;83.30;;;;;;5059592;28;20481;-71
2023/11/10 06:50:55;;;;;;;1.40;0.80;;;8.20;83.40;;;;;;5062702;28;21016;-72
2023/11/10 06:53:21;;;;;;;0.80;0.60;;;8.20;83.10;;;;;;5065183;28;20684;-70
2023/11/10 06:55:49;;;;;;;1.17;0.70;;;8.20;83.00;;;;;;5051731;28;20298;-71
2023/11/10 06:58:15;;;;;;;0.83;0.70;;;8.30;83.10;;;;;;5036376;28;20188;-70
2023/11/10 07:00:41;;;;;;;1.33;0.90;;;8.30;82.70;;;;;;5069448;28;20867;-71
2023/11/10 07:03:12;;;;;;;1.73;0.60;;;8.30;82.70;;;;;;5078141;28;20454;-72
2023/11/10 07:05:38;;;;;;;4.83;0.70;;;8.30;83.00;;;;;;5056509;28;20682;-71
2023/11/10 07:08:09;;;;;;;1.33;0.90;;;8.20;82.70;;;;;;5065814;28;20927;-70
2023/11/10 07:10:41;;;;;;;1.30;0.90;;;8.20;82.80;;;;;;5051820;28;20458;-69
2023/11/10 07:13:07;;;;;;;1.27;0.90;;;8.20;83.00;;;;;;5059365;28;20419;-69
2023/11/10 07:15:33;;;;;;;3.97;0.80;;;8.20;83.00;;;;;;5073083;28;20515;-71
2023/11/10 07:18:00;;;;;;;1.97;1.00;;;8.10;83.30;;;;;;5068950;28;20459;-71
2023/11/10 07:20:28;;;;;;;1.20;0.90;;;8.10;83.40;;;;;;5055948;28;20188;-69
2023/11/10 07:22:54;;;;;;;2.00;0.77;;;8.00;83.60;;;;;;5064706;28;20544;-70
2023/11/10 07:25:20;;;;;;;1.80;0.70;;;8.00;83.70;;;;;;5062280;28;20474;-73
2023/11/10 07:27:46;;;;;;;1.40;0.80;;;8.00;83.70;;;;;;5070834;28;20699;-71
2023/11/10 07:30:12;;;;;;;8.43;0.80;;;8.00;83.70;;;;;;5071266;28;20425;-70
2023/11/10 07:32:38;;;;;;;1.30;0.80;;;8.00;83.70;;;;;;5060261;28;20245;-71
2023/11/10 07:35:05;;;;;;;1.37;0.80;;;8.00;83.80;;;;;;5062361;28;20544;-71
2023/11/10 07:37:35;;;;;;;1.80;0.80;;;7.90;83.80;;;;;;5072190;28;20426;-70
2023/11/10 07:40:05;;;;;;;2.47;1.00;;;7.90;83.80;;;;;;5067783;28;20454;-71
2023/11/10 07:42:31;;;;;;;1.77;1.17;;;7.90;84.00;;;;;;5054458;28;20989;-71
2023/11/10 07:44:57;;;;;;;1.10;0.83;;;7.90;84.00;;;;;;5073447;28;20470;-69
2023/11/10 07:47:23;;;;;;;2.00;1.33;;;7.90;84.00;;;;;;5070741;28;20953;-70
2023/11/10 07:49:48;;;;;;;3.80;0.90;;;7.90;84.30;;;;;;5073685;28;20659;-70
2023/11/10 07:52:14;;;;;;;2.47;0.90;;;8.00;84.10;;;;;;5071980;28;20222;-72
2023/11/10 07:54:39;;;;;;;2.07;1.23;;;8.00;84.00;;;;;;5069869;28;20211;-71
2023/11/10 07:57:06;;;;;;;1.40;1.00;;;8.00;84.00;;;;;;5074016;28;20229;-68
2023/11/10 07:59:32;;;;;;;1.37;1.17;;;8.00;84.00;;;;;;5074428;28;20277;-70
2023/11/10 08:02:01;;;;;;;1.50;1.10;;;8.00;83.80;;;;;;5071533;28;20481;-70
2023/11/10 08:04:27;;;;;;;3.00;1.20;;;8.00;84.00;;;;;;5073793;28;20529;-70
2023/11/10 08:06:53;;;;;;;1.63;1.23;;;8.10;84.10;;;;;;5062499;28;20463;-72
2023/11/10 08:09:21;;;;;;;1.87;1.00;;;8.20;84.10;;;;;;5060363;28;20441;-71
2023/11/10 08:11:47;;;;;;;1.70;1.27;;;8.20;83.80;;;;;;5068917;28;20641;-71
2023/11/10 08:14:12;;;;;;;4.30;1.00;;;8.20;83.70;;;;;;5062523;28;20472;-72
2023/11/10 08:16:38;;;;;;;3.70;1.20;;;8.20;83.80;;;;;;5060758;28;20447;-72
2023/11/10 08:19:04;;;;;;;2.50;0.90;;;8.20;83.80;;;;;;5065526;28;20195;-73
2023/11/10 08:21:30;;;;;;;2.90;1.00;;;8.30;83.40;;;;;;5056618;28;20254;-69
2023/11/10 08:23:56;;;;;;;2.60;0.87;;;8.30;83.40;;;;;;5071146;28;20859;-70
2023/11/10 08:26:22;;;;;;;1.20;0.70;;;8.40;83.10;;;;;;5058858;28;20450;-71
2023/11/10 08:28:48;;;;;;;2.23;0.90;;;8.40;83.10;;;;;;5052219;28;20453;-70
2023/11/10 08:31:14;;;;;;;1.57;0.90;;;8.50;83.00;;;;;;5064499;28;20184;-71
2023/11/10 08:33:39;;;;;;;1.10;0.80;;;8.60;82.10;;;;;;5069769;28;20450;-68
2023/11/10 08:36:05;;;;;;;0.80;0.70;;;8.60;81.80;;;;;;5067039;28;20200;-71
2023/11/10 08:38:31;;;;;;;1.27;0.80;;;8.80;81.20;;;;;;5065458;28;20200;-70
2023/11/10 08:40:57;;;;;;;1.50;0.97;;;8.90;81.20;;;;;;5058351;28;20470;-72
2023/11/10 08:43:24;;;;;;;1.60;1.00;;;8.90;80.80;;;;;;5063525;28;20215;-70
2023/11/10 08:45:49;;;;;;;1.30;0.70;;;8.90;80.60;;;;;;5065140;28;20437;-71
2023/11/10 08:48:15;;;;;;;1.07;0.70;;;8.90;80.80;;;;;;5067700;28;20984;-73
2023/11/10 08:50:41;;;;;;;1.73;0.90;;;8.90;80.60;;;;;;5062672;28;20188;-71
2023/11/10 08:53:09;;;;;;;1.20;0.80;;;8.90;80.00;;;;;;5073963;28;20689;-72
2023/11/10 08:55:37;;;;;;;1.07;0.90;;;9.00;80.30;;;;;;5072026;28;20462;-70
2023/11/10 08:58:03;;;;;;;1.93;1.00;;;9.10;80.00;;;;;;5078841;28;20430;-71
2023/11/10 09:00:29;;;;;;;1.13;0.77;;;9.20;79.60;;;;;;5074226;28;20418;-70
2023/11/10 09:02:56;;;;;;;3.90;0.90;;;9.20;79.00;;;;;;5072356;28;20476;-72
2023/11/10 09:05:22;;;;;;;6.43;1.27;;;9.30;79.20;;;;;;5067062;28;20175;-72
2023/11/10 09:07:48;;;;;;;1.67;0.80;;;9.40;78.90;;;;;;5073847;28;20430;-72
2023/11/10 09:10:14;;;;;;;1.23;0.60;;;9.30;77.80;;;;;;5062282;28;20449;-72
2023/11/10 09:12:43;;;;;;;3.73;1.00;;;9.40;77.80;;;;;;5060844;28;20484;-71
2023/11/10 09:15:14;;;;;;;1.00;0.77;;;9.40;77.30;;;;;;5066647;28;20812;-73
2023/11/10 09:17:44;;;;;;;1.60;0.90;;;9.50;77.60;;;;;;5067401;28;20923;-72
2023/11/10 09:20:13;;;;;;;1.60;0.60;;;9.40;77.30;;;;;;5036376;28;21001;-73
2023/11/10 09:22:39;;;;;;;1.73;0.70;;;9.30;77.60;;;;;;5054211;28;20904;-73
2023/11/10 09:25:05;;;;;;;1.20;0.90;;;9.50;77.70;;;;;;5059136;28;20485;-72
2023/11/10 09:27:34;;;;;;;0.80;0.70;;;9.60;77.60;;;;;;5065287;28;20217;-74
2023/11/10 09:29:59;;;;;;;0.90;0.80;;;9.70;77.10;;;;;;5072567;28;20426;-72
2023/11/10 09:32:25;;;;;;;1.07;0.70;;;9.80;77.00;;;;;;5063920;28;20426;-70
2023/11/10 09:34:51;;;;;;;0.83;0.60;;;9.90;75.90;;;;;;5056060;28;20220;-73
2023/11/10 09:37:17;;;;;;;2.30;1.07;;;9.80;76.10;;;;;;5064304;28;20430;-72
2023/11/10 09:39:43;;;;;;;1.53;0.70;;;9.90;76.50;;;;;;5061753;28;20207;-73
2023/11/10 09:42:10;;;;;;;1.00;0.70;;;9.90;76.70;;;;;;5074856;28;20473;-72
2023/11/10 09:44:43;;;;;;;1.53;0.73;;;9.80;76.70;;;;;;5059893;28;20481;-72
2023/11/10 09:47:09;;;;;;;1.30;0.80;;;9.90;76.50;;;;;;5057850;28;20435;-71
2023/11/10 09:49:35;;;;;;;2.50;0.87;;;9.70;76.20;;;;;;5061757;28;20435;-71
2023/11/10 09:52:03;;;;;;;1.37;0.87;;;9.80;77.10;;;;;;5067502;28;20441;-71
2023/11/10 09:54:31;;;;;;;1.63;0.90;;;9.80;77.10;;;;;;5065648;28;20549;-72
2023/11/10 09:56:58;;;;;;;1.07;0.83;;;9.80;77.40;;;;;;5073606;28;20426;-72
2023/11/10 09:59:27;;;;;;;1.63;1.23;;;9.90;76.10;;;;;;5072786;28;20426;-71
2023/11/10 10:01:53;;;;;;;3.70;0.93;;;10.00;75.80;;;;;;5073075;28;20493;-72
2023/11/10 10:04:19;;;;;;;1.63;0.83;;;9.90;75.40;;;;;;5054311;28;20455;-70
2023/11/10 10:06:50;;;;;;;1.47;0.83;;;10.00;75.80;;;;;;5069255;28;20494;-73
2023/11/10 10:09:16;;;;;;;1.20;0.80;;;10.00;73.70;;;;;;5072990;28;20191;-71
2023/11/10 10:11:42;;;;;;;2.23;0.87;;;10.00;74.20;;;;;;5059290;28;20431;-72
2023/11/10 10:14:08;;;;;;;2.00;0.83;;;9.90;74.50;;;;;;5063507;28;20507;-72
2023/11/10 10:16:34;;;;;;;2.47;1.00;;;9.60;75.70;;;;;;5054272;28;20518;-74
2023/11/10 10:19:02;;;;;;;1.10;0.90;;;9.60;76.40;;;;;;5066662;28;20184;-72
2023/11/10 10:21:27;;;;;;;1.53;0.70;;;9.60;76.80;;;;;;5043342;28;20204;-72
2023/11/10 10:23:53;;;;;;;1.23;0.90;;;10.00;75.90;;;;;;5063391;28;20540;-71
2023/11/10 10:26:20;;;;;;;1.80;0.90;;;10.00;74.00;;;;;;5073806;28;20200;-70
2023/11/10 10:28:45;;;;;;;1.77;0.90;;;9.90;74.30;;;;;;5073843;28;20430;-70
2023/11/10 10:31:11;;;;;;;1.33;0.80;;;9.80;74.90;;;;;;5062042;28;20492;-69
2023/11/10 10:33:37;;;;;;;2.70;0.87;;;9.70;75.10;;;;;;5069974;28;21475;-69
2023/11/10 10:36:03;;;;;;;1.93;0.90;;;9.60;75.10;;;;;;5070846;28;20184;-71
2023/11/10 10:38:32;;;;;;;1.57;0.90;;;9.50;75.10;;;;;;5067409;28;20215;-71
2023/11/10 10:41:01;;;;;;;8.70;1.50;;;9.70;74.30;;;;;;5073420;28;20898;-71
2023/11/10 10:43:28;;;;;;;1.30;0.87;;;9.70;74.20;;;;;;5068329;28;20538;-70
2023/11/10 10:45:55;;;;;;;1.30;1.10;;;9.60;73.60;;;;;;5056169;28;20435;-72
2023/11/10 10:48:21;;;;;;;1.07;0.73;;;9.70;74.00;;;;;;5053907;28;20447;-70
2023/11/10 10:50:48;;;;;;;1.33;0.87;;;9.90;73.20;;;;;;5057712;28;21135;-70
2023/11/10 10:53:17;;;;;;;3.60;1.13;;;9.80;73.00;;;;;;5069550;28;20223;-72
2023/11/10 10:55:44;;;;;;;2.23;1.00;;;10.00;73.60;;;;;;5065246;28;20430;-71
2023/11/10 10:58:13;;;;;;;1.63;0.97;;;10.20;72.10;;;;;;5060608;28;20785;-71
2023/11/10 11:00:38;;;;;;;1.67;0.83;;;10.30;72.00;;;;;;5066464;28;20442;-70
2023/11/10 11:03:46;;;;;;;1.23;0.70;;;10.60;71.40;;;;;;5068796;28;20442;-72
2023/11/10 11:06:38;;;;;;;1.53;0.70;;;10.50;70.70;;;;;;5065251;28;20198;-72
2023/11/10 11:09:25;;;;;;;2.70;1.10;;;10.60;70.70;;;;;;5052643;28;20419;-73
2023/11/10 11:11:53;;;;;;;1.93;1.00;;;10.70;69.80;;;;;;5060931;28;20446;-70
2023/11/10 11:14:32;;;;;;;1.17;0.87;;;10.60;69.90;;;;;;5071327;28;20522;-71
2023/11/10 11:17:28;;;;;;;3.60;0.77;;;10.50;69.50;;;;;;5067743;28;20439;-71
2023/11/10 11:19:55;;;;;;;1.63;0.80;;;10.40;70.10;;;;;;5058219;28;20472;-72
2023/11/10 11:22:21;;;;;;;2.20;0.70;;;10.50;70.20;;;;;;5053496;28;20511;-71
2023/11/10 11:24:47;;;;;;;1.03;0.77;;;10.60;69.20;;;;;;5066877;28;20458;-71
2023/11/10 11:27:24;;;;;;;1.80;0.93;;;10.50;69.90;;;;;;5053608;28;20438;-72
2023/11/10 11:29:55;;;;;;;1.93;0.80;;;10.50;68.80;;;;;;5068007;28;20202;-71
2023/11/10 11:32:25;;;;;;;1.33;0.70;;;10.60;67.50;;;;;;5070056;28;20481;-71
2023/11/10 11:34:58;;;;;;;2.20;0.83;;;10.60;66.40;;;;;;5073156;28;20480;-72
2023/11/10 11:37:31;;;;;;;1.10;0.70;;;10.70;66.40;;;;;;5067489;28;20889;-71
2023/11/10 11:39:59;;;;;;;1.60;0.80;;;10.70;66.70;;;;;;5062106;28;20536;-71
2023/11/10 11:42:41;;;;;;;2.17;0.90;;;10.70;65.80;;;;;;5053032;28;20501;-72
2023/11/10 11:45:11;;;;;;;1.00;0.63;;;10.80;65.80;;;;;;5066114;28;20479;-71
2023/11/10 11:47:38;;;;;;;2.20;0.90;;;10.80;65.80;;;;;;5053642;28;20506;-72
2023/11/10 11:50:05;;;;;;;1.53;0.80;;;10.70;66.40;;;;;;5064535;28;20431;-70
2023/11/10 11:52:31;;;;;;;2.63;0.90;;;10.70;67.20;;;;;;5075164;28;20493;-73
2023/11/10 11:54:57;;;;;;;2.07;1.00;;;10.80;66.90;;;;;;5070189;28;20553;-71
2023/11/10 11:57:25;;;;;;;1.30;1.00;;;10.90;67.20;;;;;;5068820;28;20936;-71
2023/11/10 11:59:51;;;;;;;2.20;0.90;;;10.90;67.20;;;;;;5069221;28;20487;-71
2023/11/10 12:02:19;;;;;;;1.93;1.10;;;11.00;66.60;;;;;;5071476;28;20466;-70
2023/11/10 12:04:45;;;;;;;1.10;0.70;;;11.00;66.60;;;;;;5066667;28;20228;-71
2023/11/10 12:07:11;;;;;;;6.10;1.00;;;11.20;66.70;;;;;;5057526;28;20457;-72
2023/11/10 12:09:37;;;;;;;1.10;0.73;;;11.10;66.10;;;;;;5069254;28;20430;-72
2023/11/10 12:12:04;;;;;;;1.77;0.90;;;11.30;66.30;;;;;;5064769;28;20435;-70
2023/11/10 12:14:30;;;;;;;1.47;0.70;;;11.30;66.30;;;;;;5063008;28;20552;-71
2023/11/10 12:16:56;;;;;;;3.00;1.50;;;11.30;66.30;;;;;;5071263;28;20445;-71
2023/11/10 12:19:23;;;;;;;1.63;0.90;;;11.60;66.00;;;;;;5066430;28;20889;-71
2023/11/10 12:21:50;;;;;;;1.70;0.73;;;11.60;66.30;;;;;;5074145;28;20223;-70
2023/11/10 12:24:19;;;;;;;2.30;1.00;;;11.60;66.40;;;;;;5067811;28;20470;-71
2023/11/10 12:26:45;;;;;;;1.50;0.77;;;11.60;66.60;;;;;;5061260;28;20994;-72
2023/11/10 12:29:17;;;;;;;2.03;0.80;;;11.60;66.70;;;;;;5074699;28;20523;-70
2023/11/10 12:31:47;;;;;;;1.30;0.83;;;11.40;67.30;;;;;;5065786;28;20803;-70
2023/11/10 12:34:13;;;;;;;1.13;0.80;;;11.20;67.90;;;;;;5075443;28;20454;-72
2023/11/10 12:36:39;;;;;;;1.47;0.90;;;11.40;68.00;;;;;;5070374;28;20434;-73
2023/11/10 12:39:17;;;;;;;2.30;0.60;;;11.40;67.70;;;;;;5063832;28;20447;-70
2023/11/10 12:41:43;;;;;;;3.00;0.90;;;11.40;67.20;;;;;;5072273;28;20477;-72
2023/11/10 12:44:09;;;;;;;2.70;0.60;;;11.50;67.20;;;;;;5072664;28;20453;-72
2023/11/10 12:46:36;;;;;;;1.47;0.90;;;11.60;67.50;;;;;;5071080;28;20461;-71
2023/11/10 12:49:03;;;;;;;1.20;0.90;;;11.60;67.20;;;;;;5067779;28;20467;-71
2023/11/10 12:51:29;;;;;;;1.20;0.97;;;11.40;67.60;;;;;;5074366;28;20434;-71
2023/11/10 12:54:07;;;;;;;1.70;1.00;;;11.50;67.90;;;;;;5073854;28;20445;-71